createdAt,value
2022-08-17T00:01:27.200Z,26.60
2022-08-17T00:04:50.837Z,26.60
2022-08-17T00:08:15.260Z,26.50
2022-08-17T00:11:41.597Z,26.50
2022-08-17T00:15:05.069Z,26.50
2022-08-17T00:19:01.401Z,26.40
2022-08-17T00:22:33.753Z,26.40
2022-08-17T00:25:57.627Z,26.40
2022-08-17T00:29:20.651Z,26.30
2022-08-17T00:33:13.660Z,26.30
2022-08-17T00:36:31.361Z,26.30
2022-08-17T00:39:54.471Z,26.30
2022-08-17T00:43:20.907Z,26.30
2022-08-17T00:46:45.119Z,26.20
2022-08-17T00:50:11.381Z,26.20
2022-08-17T00:53:39.707Z,26.20
2022-08-17T00:57:07.483Z,26.10
2022-08-17T01:00:35.227Z,26.10
2022-08-17T01:04:00.074Z,26.10
2022-08-17T01:07:27.173Z,26.10
2022-08-17T01:10:57.462Z,26.10
2022-08-17T01:14:26.525Z,26.10
2022-08-17T01:17:49.757Z,26.10
2022-08-17T01:21:21.287Z,26.10
2022-08-17T01:24:49.345Z,26.10
2022-08-17T01:28:12.737Z,26.10
2022-08-17T01:31:58.970Z,26.10
2022-08-17T01:35:22.028Z,26.10
2022-08-17T01:38:45.122Z,26.10
2022-08-17T01:42:14.138Z,26.10
2022-08-17T01:45:43.913Z,26.10
2022-08-17T01:49:08.605Z,26.00
2022-08-17T01:52:31.730Z,26.00
2022-08-17T01:55:58.517Z,26.00
2022-08-17T01:59:22.928Z,26.00
2022-08-17T02:02:46.136Z,25.90
2022-08-17T02:06:26.983Z,25.90
2022-08-17T02:09:52.781Z,25.80
2022-08-17T02:13:16.005Z,25.80
2022-08-17T02:16:41.970Z,25.80
2022-08-17T02:20:07.381Z,25.80
2022-08-17T02:23:33.510Z,25.80
2022-08-17T02:26:56.579Z,25.80
2022-08-17T02:30:49.910Z,25.80
2022-08-17T02:34:06.204Z,25.80
2022-08-17T02:37:30.598Z,25.80
2022-08-17T02:40:53.600Z,25.80
2022-08-17T02:44:38.976Z,25.80
2022-08-17T02:47:59.767Z,25.80
2022-08-17T02:51:24.161Z,25.80
2022-08-17T02:54:47.189Z,25.80
2022-08-17T02:58:12.121Z,25.80
2022-08-17T03:01:35.381Z,25.80
2022-08-17T03:04:58.391Z,25.80
2022-08-17T03:08:23.341Z,25.80
2022-08-17T03:11:46.413Z,25.70
2022-08-17T03:15:13.152Z,25.70
2022-08-17T03:18:36.742Z,25.70
2022-08-17T03:22:00.113Z,25.70
2022-08-17T03:25:46.004Z,25.70
2022-08-17T03:29:09.017Z,25.70
2022-08-17T03:32:37.778Z,25.70
2022-08-17T03:36:01.261Z,25.60
2022-08-17T03:39:24.284Z,25.70
2022-08-17T03:42:49.208Z,25.60
2022-08-17T03:46:34.683Z,25.60
2022-08-17T03:50:15.885Z,25.60
2022-08-17T03:54:06.288Z,25.60
2022-08-17T03:57:31.951Z,25.60
2022-08-17T04:00:56.596Z,25.60
2022-08-17T04:04:20.784Z,25.60
2022-08-17T04:07:51.761Z,25.60
2022-08-17T04:11:14.784Z,25.60
2022-08-17T04:14:51.951Z,25.50
2022-08-17T04:18:19.500Z,25.50
2022-08-17T04:21:42.710Z,25.50
2022-08-17T04:25:10.468Z,25.50
2022-08-17T04:28:33.486Z,25.50
2022-08-17T04:31:56.592Z,25.40
2022-08-17T04:35:23.221Z,25.40
2022-08-17T04:38:47.289Z,25.40
2022-08-17T04:42:17.096Z,25.40
2022-08-17T04:45:41.067Z,25.40
2022-08-17T04:49:18.775Z,25.40
2022-08-17T04:52:48.019Z,25.40
2022-08-17T04:56:16.663Z,25.40
2022-08-17T04:59:41.021Z,25.40
2022-08-17T05:03:04.725Z,25.40
2022-08-17T05:06:28.990Z,25.40
2022-08-17T05:09:53.345Z,25.40
2022-08-17T05:13:18.358Z,25.40
2022-08-17T05:16:41.403Z,25.40
2022-08-17T05:20:05.435Z,25.40
2022-08-17T05:23:34.960Z,25.40
2022-08-17T05:27:07.731Z,25.40
2022-08-17T05:30:30.945Z,25.40
2022-08-17T05:33:54.321Z,25.40
2022-08-17T05:37:17.339Z,25.40
2022-08-17T05:40:41.544Z,25.40
2022-08-17T05:44:06.001Z,25.40
2022-08-17T05:47:29.556Z,25.40
2022-08-17T05:51:07.139Z,25.40
2022-08-17T05:54:47.381Z,25.40
2022-08-17T05:58:19.946Z,25.40
2022-08-17T06:01:53.074Z,25.40
2022-08-17T06:05:36.086Z,25.30
2022-08-17T06:09:13.149Z,25.20
2022-08-17T06:12:45.565Z,25.20
2022-08-17T06:16:26.219Z,25.20
2022-08-17T06:19:59.721Z,25.10
2022-08-17T06:23:27.449Z,25.20
2022-08-17T06:26:51.538Z,25.20
2022-08-17T06:30:16.968Z,25.20
2022-08-17T06:33:41.287Z,25.20
2022-08-17T06:37:12.705Z,25.30
2022-08-17T06:40:55.284Z,25.40
2022-08-17T06:44:49.647Z,25.40
2022-08-17T06:48:12.780Z,25.40
2022-08-17T06:51:40.752Z,25.50
2022-08-17T06:55:09.380Z,25.50
2022-08-17T06:58:44.666Z,25.40
2022-08-17T07:02:10.204Z,25.40
2022-08-17T07:05:38.849Z,25.40
2022-08-17T07:09:07.046Z,25.40
2022-08-17T07:12:40.053Z,25.40
2022-08-17T07:16:12.474Z,25.40
2022-08-17T07:19:40.589Z,25.40
2022-08-17T07:23:09.952Z,25.30
2022-08-17T07:26:32.989Z,25.20
2022-08-17T07:30:10.628Z,25.10
2022-08-17T07:33:36.740Z,25.00
2022-08-17T07:37:05.245Z,24.90
2022-08-17T07:40:33.446Z,24.90
2022-08-17T07:43:57.258Z,24.80
2022-08-17T07:47:40.602Z,24.80
2022-08-17T07:51:15.086Z,24.80
2022-08-17T07:54:40.151Z,24.80
2022-08-17T07:58:03.591Z,24.80
2022-08-17T08:01:26.763Z,24.80
2022-08-17T08:05:13.260Z,24.80
2022-08-17T08:08:42.206Z,24.80
2022-08-17T08:12:33.790Z,24.90
2022-08-17T08:16:19.790Z,25.00
2022-08-17T08:19:42.794Z,25.10
2022-08-17T08:23:18.585Z,25.20
2022-08-17T08:26:46.336Z,25.20
2022-08-17T08:30:14.089Z,25.20
2022-08-17T08:33:49.646Z,25.20
2022-08-17T08:37:32.282Z,25.20
2022-08-17T08:41:20.890Z,25.20
2022-08-17T08:45:01.360Z,25.30
2022-08-17T08:48:56.100Z,25.30
2022-08-17T08:52:42.259Z,25.30
2022-08-17T08:56:12.646Z,25.30
2022-08-17T08:59:44.264Z,25.30
2022-08-17T09:03:51.670Z,25.50
2022-08-17T09:07:30.197Z,25.50
2022-08-17T09:11:00.777Z,25.40
2022-08-17T09:14:31.292Z,25.30
2022-08-17T09:21:57.446Z,25.30
2022-08-17T09:25:26.239Z,25.30
2022-08-17T09:28:52.487Z,25.40
2022-08-17T09:32:22.298Z,25.30
2022-08-17T09:35:50.718Z,25.30
2022-08-17T09:39:21.037Z,25.30
2022-08-17T09:42:53.375Z,25.20
2022-08-17T09:46:20.707Z,25.20
2022-08-17T09:49:51.182Z,25.30
2022-08-17T09:53:14.514Z,25.20
2022-08-17T09:56:48.227Z,25.20
2022-08-17T10:00:23.668Z,25.20
2022-08-17T10:04:20.413Z,25.20
2022-08-17T10:07:49.732Z,25.20
2022-08-17T10:11:33.375Z,25.10
2022-08-17T10:15:09.717Z,25.00
2022-08-17T10:18:44.359Z,25.00
2022-08-17T10:22:34.974Z,24.90
2022-08-17T10:26:14.923Z,24.90
2022-08-17T10:29:48.505Z,24.80
2022-08-17T10:33:17.189Z,24.70
2022-08-17T10:36:50.210Z,24.60
2022-08-17T10:40:32.450Z,24.50
2022-08-17T10:44:37.251Z,24.60
2022-08-17T10:48:04.747Z,24.50
2022-08-17T10:51:38.122Z,24.40
2022-08-17T10:55:14.892Z,24.30
2022-08-17T10:58:46.893Z,24.40
2022-08-17T11:02:18.852Z,24.30
2022-08-17T11:05:58.749Z,24.30
2022-08-17T11:09:33.755Z,24.20
2022-08-17T11:13:02.528Z,24.20
2022-08-17T11:16:39.562Z,24.20
2022-08-17T11:20:28.756Z,24.00
2022-08-17T11:24:18.306Z,24.00
2022-08-17T11:27:41.778Z,24.00
2022-08-17T11:31:09.611Z,24.00
2022-08-17T11:34:34.519Z,24.10
2022-08-17T11:38:16.066Z,24.00
2022-08-17T11:41:49.365Z,23.90
2022-08-17T11:45:37.483Z,24.00
2022-08-17T11:49:28.757Z,24.00
2022-08-17T11:52:52.111Z,24.10
2022-08-17T11:56:32.766Z,24.10
2022-08-17T11:59:58.710Z,24.30
2022-08-17T12:03:55.984Z,24.50
2022-08-17T12:07:22.539Z,24.60
2022-08-17T12:11:00.545Z,24.70
2022-08-17T12:14:51.365Z,24.80
2022-08-17T12:18:21.168Z,24.80
2022-08-17T12:21:53.732Z,24.90
2022-08-17T12:25:22.374Z,24.90
2022-08-17T12:28:47.215Z,25.00
2022-08-17T12:32:18.283Z,25.10
2022-08-17T12:35:41.484Z,25.40
2022-08-17T12:39:12.852Z,25.60
2022-08-17T12:42:39.377Z,25.40
2022-08-17T12:46:12.965Z,25.40
2022-08-17T12:49:42.179Z,25.50
2022-08-17T12:53:11.650Z,25.50
2022-08-17T12:56:35.234Z,25.60
2022-08-17T13:00:03.554Z,25.90
2022-08-17T13:03:36.350Z,26.10
2022-08-17T13:07:01.781Z,26.60
2022-08-17T13:10:32.426Z,27.20
2022-08-17T13:13:57.632Z,27.30
2022-08-17T13:17:27.706Z,26.80
2022-08-17T13:20:54.377Z,26.70
2022-08-17T13:24:21.491Z,26.60
2022-08-17T13:27:44.774Z,26.40
2022-08-17T13:31:52.076Z,26.30
2022-08-17T13:35:39.795Z,26.40
2022-08-17T13:39:08.844Z,26.70
2022-08-17T13:42:50.295Z,27.00
2022-08-17T13:46:22.644Z,27.40
2022-08-17T13:49:48.950Z,27.50
2022-08-17T13:53:19.221Z,27.40
2022-08-17T13:56:52.650Z,27.10
2022-08-17T14:00:29.772Z,26.90
2022-08-17T14:03:52.872Z,26.80
2022-08-17T14:07:33.609Z,26.90
2022-08-17T14:10:59.149Z,26.90
2022-08-17T14:14:24.101Z,26.90
2022-08-17T14:17:49.138Z,27.00
2022-08-17T14:21:12.234Z,27.00
2022-08-17T14:24:44.684Z,27.00
2022-08-17T14:28:08.297Z,27.10
2022-08-17T14:31:36.798Z,27.10
2022-08-17T14:35:03.674Z,27.20
2022-08-17T14:38:26.645Z,27.50
2022-08-17T14:41:49.947Z,27.90
2022-08-17T14:45:31.723Z,28.00
2022-08-17T14:48:57.489Z,28.10
2022-08-17T14:52:22.474Z,28.30
2022-08-17T14:55:46.862Z,28.30
2022-08-17T14:59:10.319Z,28.20
2022-08-17T15:02:45.392Z,28.40
2022-08-17T15:06:09.433Z,28.40
2022-08-17T15:09:35.716Z,28.30
2022-08-17T15:13:00.497Z,28.30
2022-08-17T15:16:24.206Z,28.10
2022-08-17T15:19:47.236Z,28.10
2022-08-17T15:23:14.894Z,28.10
2022-08-17T15:26:39.312Z,28.30
2022-08-17T15:30:02.628Z,28.50
2022-08-17T15:33:29.748Z,28.70
2022-08-17T15:36:53.286Z,28.90
2022-08-17T15:40:16.987Z,29.00
2022-08-17T15:43:42.056Z,29.20
2022-08-17T15:47:05.124Z,29.20
2022-08-17T15:50:28.122Z,29.30
2022-08-17T15:53:52.809Z,29.30
2022-08-17T15:57:15.899Z,29.30
2022-08-17T16:00:49.368Z,29.20
2022-08-17T16:04:28.426Z,29.20
2022-08-17T16:07:54.350Z,29.30
2022-08-17T16:11:18.658Z,29.20
2022-08-17T16:14:41.636Z,29.20
2022-08-17T16:18:06.113Z,29.00
2022-08-17T16:21:31.220Z,29.10
2022-08-17T16:25:08.867Z,29.20
2022-08-17T16:28:35.710Z,29.20
2022-08-17T16:31:59.552Z,29.00
2022-08-17T16:35:26.759Z,28.80
2022-08-17T16:38:51.054Z,28.60
2022-08-17T16:42:24.430Z,28.50
2022-08-17T16:45:51.803Z,28.40
2022-08-17T16:49:35.589Z,28.30
2022-08-17T16:53:07.486Z,28.30
2022-08-17T16:56:34.896Z,28.40
2022-08-17T16:59:58.207Z,28.50
2022-08-17T17:03:25.800Z,28.50
2022-08-17T17:07:00.983Z,28.60
2022-08-17T17:10:29.782Z,28.50
2022-08-17T17:13:57.824Z,28.40
2022-08-17T17:17:28.662Z,28.40
2022-08-17T17:20:56.576Z,28.40
2022-08-17T17:24:28.889Z,28.40
2022-08-17T17:28:02.404Z,28.30
2022-08-17T17:31:32.548Z,28.30
2022-08-17T17:35:04.647Z,28.30
2022-08-17T17:38:32.318Z,28.20
2022-08-17T17:41:58.404Z,28.10
2022-08-17T17:45:25.877Z,28.10
2022-08-17T17:48:48.993Z,28.10
2022-08-17T17:52:22.341Z,28.00
2022-08-17T17:55:54.341Z,28.00
2022-08-17T17:59:44.046Z,27.90
2022-08-17T18:03:30.943Z,27.90
2022-08-17T18:07:12.618Z,27.80
2022-08-17T18:10:49.055Z,27.80
2022-08-17T18:14:22.290Z,27.70
2022-08-17T18:18:24.787Z,27.70
2022-08-17T18:21:53.687Z,27.70
2022-08-17T18:25:43.546Z,27.70
2022-08-17T18:29:21.163Z,27.60
2022-08-17T18:32:46.440Z,27.60
2022-08-17T18:36:10.176Z,27.60
2022-08-17T18:39:36.911Z,27.50
2022-08-17T18:43:05.921Z,27.50
2022-08-17T18:46:33.122Z,27.50
2022-08-17T18:50:03.192Z,27.40
2022-08-17T18:53:34.096Z,27.20
2022-08-17T18:57:00.441Z,27.00
2022-08-17T19:00:38.237Z,26.90
2022-08-17T19:04:01.264Z,26.80
2022-08-17T19:07:30.619Z,26.50
2022-08-17T19:10:56.668Z,26.40
2022-08-17T19:14:22.367Z,26.30
2022-08-17T19:17:49.908Z,26.30
2022-08-17T19:21:17.839Z,26.30
2022-08-17T19:24:47.844Z,26.30
2022-08-17T19:28:22.514Z,26.20
2022-08-17T19:31:47.827Z,26.10
2022-08-17T19:35:17.174Z,26.00
2022-08-17T19:38:49.615Z,25.90
2022-08-17T19:42:20.535Z,25.90
2022-08-17T19:45:56.065Z,25.80
2022-08-17T19:49:33.509Z,25.70
2022-08-17T19:53:09.464Z,25.80
2022-08-17T19:56:41.518Z,25.90
2022-08-17T20:00:11.567Z,25.70
2022-08-17T20:03:42.267Z,25.60
2022-08-17T20:07:12.221Z,25.60
2022-08-17T20:10:45.229Z,25.60
2022-08-17T20:14:15.317Z,25.80
2022-08-17T20:17:41.222Z,25.80
2022-08-17T20:21:20.244Z,25.90
2022-08-17T20:25:03.405Z,25.90
2022-08-17T20:28:30.553Z,25.90
2022-08-17T20:32:19.748Z,26.00
2022-08-17T20:36:03.348Z,26.00
2022-08-17T20:39:34.605Z,26.00
2022-08-17T20:43:00.555Z,26.00
2022-08-17T20:46:33.801Z,26.00
2022-08-17T20:50:01.411Z,26.10
2022-08-17T20:54:00.470Z,26.10
2022-08-17T20:57:47.769Z,26.10
2022-08-17T21:01:16.085Z,26.10
2022-08-17T21:04:48.242Z,26.00
2022-08-17T21:08:17.221Z,26.00
2022-08-17T21:12:02.842Z,25.90
2022-08-17T21:15:34.891Z,25.90
2022-08-17T21:19:16.981Z,25.90
2022-08-17T21:22:52.899Z,25.90
2022-08-17T21:26:30.319Z,25.90
2022-08-17T21:30:12.219Z,25.90
2022-08-17T21:33:36.804Z,25.90
2022-08-17T21:37:29.600Z,25.90
2022-08-17T21:40:54.266Z,25.80
2022-08-17T21:44:27.816Z,25.80
2022-08-17T21:48:11.073Z,25.80
2022-08-17T21:51:37.222Z,25.80
2022-08-17T21:55:03.224Z,25.70
2022-08-17T21:58:31.486Z,25.70
2022-08-17T22:01:57.632Z,25.70
2022-08-17T22:05:30.242Z,25.70
2022-08-17T22:09:01.564Z,25.70
2022-08-17T22:12:25.956Z,25.70
2022-08-17T22:16:27.820Z,25.70
2022-08-17T22:19:53.419Z,25.70
2022-08-17T22:23:41.148Z,25.70
2022-08-17T22:27:10.340Z,25.70
2022-08-17T22:30:37.264Z,25.60
2022-08-17T22:34:13.389Z,25.60
2022-08-17T22:37:36.415Z,25.60
2022-08-17T22:41:31.855Z,25.60
2022-08-17T22:44:54.966Z,25.60
2022-08-17T22:48:22.356Z,25.60
2022-08-17T22:51:50.515Z,25.60
2022-08-17T22:55:33.673Z,25.60
2022-08-17T22:59:27.665Z,25.60
2022-08-17T23:03:07.000Z,25.50
2022-08-17T23:06:33.870Z,25.60
2022-08-17T23:09:56.962Z,25.50
2022-08-17T23:13:21.258Z,25.50
2022-08-17T23:16:44.363Z,25.50
2022-08-17T23:20:11.930Z,25.40
2022-08-17T23:23:37.031Z,25.40
2022-08-17T23:27:00.104Z,25.40
2022-08-17T23:30:28.512Z,25.40
2022-08-17T23:33:52.382Z,25.40
2022-08-17T23:37:15.472Z,25.40
2022-08-17T23:40:40.909Z,25.40
2022-08-17T23:44:06.630Z,25.30
2022-08-17T23:47:29.748Z,25.40
2022-08-17T23:50:54.308Z,25.30
2022-08-17T23:54:22.610Z,25.30
2022-08-17T23:57:47.014Z,25.30
